Aberdeen, Maryland
Current Conditions -  °F | °C
As of 8:50 AM on Saturday 20 Dec 2014 (Local Time) from KMTN Reporting Station
Broken Clouds Broken Clouds  
Wind Chill: -4°   Ceiling: 18000
Heat Index: -1°   Visibility: 10mi
Dew Point: -3°   Wind: 5mph
Humidity: 86%   Direction: 290°WNW
Pressure: 30.33"   Gusts: NA
Location:  39.51°N, 76.16°W
Report Text: KMTN 201350Z 29004KT 10SM BKN180 M01/M03 A3033
Loading
Personal Weather Stations






























Interactive Weather Map New forecast layout! Learn more

10-Day Weather Forecast

Advertisements
Track Severe Weather on mobile